Time;durP1;ratioP1;P1;durP2;ratioP2;P2;SDS_P1;SDS_P2;PMS_P1;PMS_P2;Temp;Humidity;BMP_temperature;BMP_pressure;BME280_temperature;BME280_humidity;BME280_pressure;Samples;Min_cycle;Max_cycle;Signal;HPM_P1;HPM_P2
2022/02/02 00:00:41;;;;;;;0.85;0.85;;;5.20;99.90;;;;;;5121893;28;20225;-48
2022/02/02 00:03:10;;;;;;;1.73;1.48;;;5.20;99.90;;;;;;5121613;28;20201;-46
2022/02/02 00:18:53;;;;;;;3.08;1.92;;;5.10;99.90;;;;;;5122944;28;20197;-46
2022/02/02 00:21:42;;;;;;;4.50;2.35;;;5.10;99.90;;;;;;5127291;27;20467;-48
2022/02/02 00:24:23;;;;;;;6.22;2.45;;;5.10;99.90;;;;;;5125696;27;20200;-50
2022/02/02 00:26:54;;;;;;;6.32;2.20;;;5.00;99.90;;;;;;5132076;27;20221;-50
2022/02/02 00:29:29;;;;;;;5.03;2.50;;;4.90;99.90;;;;;;5121588;28;20424;-49
2022/02/02 00:32:05;;;;;;;2.42;1.63;;;5.00;99.90;;;;;;5122074;28;20199;-51
2022/02/02 00:34:33;;;;;;;5.55;1.80;;;5.10;99.90;;;;;;5122098;28;20208;-49
2022/02/02 00:37:00;;;;;;;2.25;1.90;;;5.00;99.90;;;;;;5121912;28;20229;-52
2022/02/02 00:39:29;;;;;;;5.32;1.80;;;4.90;99.90;;;;;;5121902;28;20211;-46
2022/02/02 00:41:57;;;;;;;5.47;1.83;;;4.70;99.90;;;;;;5121209;28;20227;-45
2022/02/02 00:44:26;;;;;;;3.63;2.05;;;4.60;99.90;;;;;;5121400;28;20506;-47
2022/02/02 00:46:56;;;;;;;1.60;1.50;;;4.60;99.90;;;;;;5121517;28;20224;-45
2022/02/02 00:49:24;;;;;;;13.57;1.92;;;4.60;99.90;;;;;;5121335;28;20196;-49
2022/02/02 00:51:57;;;;;;;2.95;2.20;;;4.60;99.90;;;;;;5120959;28;20248;-51
2022/02/02 00:54:26;;;;;;;2.10;1.27;;;4.60;99.90;;;;;;5122752;28;20437;-49
2022/02/02 00:56:54;;;;;;;1.58;1.48;;;4.70;99.90;;;;;;5122065;28;20221;-50
2022/02/02 00:59:22;;;;;;;5.53;1.90;;;4.70;99.90;;;;;;5122076;28;20201;-48
2022/02/02 01:01:51;;;;;;;2.33;1.50;;;4.80;99.90;;;;;;5120931;28;20221;-47
2022/02/02 01:04:18;;;;;;;3.47;1.60;;;4.90;99.90;;;;;;5121678;28;20237;-47
2022/02/02 01:09:38;;;;;;;3.20;1.30;;;5.10;99.90;;;;;;5120653;28;20200;-48
2022/02/02 01:28:27;;;;;;;5.75;2.35;;;5.10;99.90;;;;;;5126451;28;20189;-47
2022/02/02 01:30:55;;;;;;;1.40;1.30;;;5.10;99.90;;;;;;5125014;28;20216;-48
2022/02/02 01:33:23;;;;;;;4.20;1.80;;;5.10;99.90;;;;;;5124719;28;20341;-47
2022/02/02 01:35:50;;;;;;;7.63;1.70;;;5.00;99.90;;;;;;5124929;28;20594;-46
2022/02/02 01:38:19;;;;;;;2.25;1.20;;;4.90;99.90;;;;;;5124593;28;20403;-46
2022/02/02 01:40:51;;;;;;;4.30;1.60;;;4.90;99.90;;;;;;5124551;28;20226;-45
2022/02/02 01:43:26;;;;;;;2.40;1.20;;;4.80;99.90;;;;;;5124889;28;20201;-45
2022/02/02 01:45:57;;;;;;;1.20;1.00;;;4.80;99.90;;;;;;5126741;28;20214;-50
2022/02/02 01:53:42;;;;;;;2.33;1.25;;;4.60;99.90;;;;;;5125100;28;20202;-46
2022/02/02 01:56:11;;;;;;;2.83;1.42;;;4.70;99.90;;;;;;5124203;28;20219;-46
2022/02/02 02:01:24;;;;;;;7.30;1.33;;;4.80;99.90;;;;;;5123855;28;20572;-46
2022/02/02 02:03:58;;;;;;;7.18;1.42;;;4.80;99.90;;;;;;5124179;28;20197;-47
2022/02/02 02:06:26;;;;;;;5.47;1.50;;;4.90;99.90;;;;;;5124051;28;20214;-46
2022/02/02 02:08:54;;;;;;;3.88;1.70;;;4.90;99.90;;;;;;5124454;28;20504;-48
2022/02/02 02:11:22;;;;;;;1.80;1.70;;;4.90;99.90;;;;;;5123517;27;20209;-46
2022/02/02 02:14:35;;;;;;;3.95;3.25;;;4.90;99.90;;;;;;5124077;28;20199;-45
2022/02/02 02:16:46;;;;;;;2.10;1.08;;;4.90;99.90;;;;;;5123816;28;20220;-49
2022/02/02 02:19:14;;;;;;;2.00;1.50;;;5.00;99.90;;;;;;5123933;28;20245;-46
2022/02/02 02:21:43;;;;;;;4.82;1.27;;;5.00;99.90;;;;;;5131964;27;20262;-46
2022/02/02 02:24:10;;;;;;;6.20;1.98;;;5.00;99.90;;;;;;5128519;27;20193;-46
2022/02/02 02:26:40;;;;;;;5.25;1.40;;;5.00;99.90;;;;;;5135499;27;20216;-45
2022/02/02 02:29:29;;;;;;;2.53;1.63;;;5.00;99.90;;;;;;5123107;28;20557;-48
2022/02/02 02:32:20;;;;;;;3.00;1.10;;;5.00;99.90;;;;;;5123921;28;20200;-46
2022/02/02 02:56:29;;;;;;;1.88;0.90;;;5.10;99.90;;;;;;5123549;28;20228;-46
2022/02/02 03:02:24;;;;;;;2.85;1.05;;;5.10;99.90;;;;;;5122937;28;20212;-49
2022/02/02 03:59:27;;;;;;;2.47;1.73;;;4.60;99.90;;;;;;5122010;28;20283;-47
2022/02/02 04:04:45;;;;;;;6.03;1.23;;;4.60;99.90;;;;;;5122370;28;20220;-52
2022/02/02 04:07:29;;;;;;;4.10;2.35;;;4.60;99.90;;;;;;5121923;28;20216;-52
2022/02/02 04:10:02;;;;;;;11.00;3.08;;;4.60;99.90;;;;;;5125819;28;20415;-46
2022/02/02 04:57:10;;;;;;;8.55;2.65;;;4.40;99.90;;;;;;5119989;28;20261;-45
2022/02/02 04:59:27;;;;;;;6.53;2.83;;;4.50;99.90;;;;;;5120825;28;20208;-48
2022/02/02 05:07:44;;;;;;;1.70;1.60;;;4.70;99.90;;;;;;5124083;28;20219;-48
2022/02/02 05:10:19;;;;;;;4.50;1.85;;;4.60;99.90;;;;;;5120994;28;20247;-47
2022/02/02 05:13:52;;;;;;;2.42;1.90;;;4.70;99.90;;;;;;5121347;28;20197;-48
2022/02/02 05:15:58;;;;;;;3.72;1.65;;;4.80;99.90;;;;;;5121239;28;20262;-49
2022/02/02 05:53:48;;;;;;;5.05;1.85;;;4.20;99.90;;;;;;5121816;28;20208;-48
2022/02/02 05:56:15;;;;;;;8.23;2.40;;;4.30;99.90;;;;;;5121498;28;20220;-52
2022/02/02 05:58:48;;;;;;;7.85;2.15;;;4.20;99.90;;;;;;5122394;28;20196;-49
2022/02/02 06:01:16;;;;;;;6.20;2.25;;;4.30;99.90;;;;;;5120572;28;20404;-49
2022/02/02 06:04:01;;;;;;;5.07;2.22;;;4.30;99.90;;;;;;5143892;27;20193;-49
2022/02/02 06:06:29;;;;;;;4.70;2.17;;;4.40;99.90;;;;;;5146348;27;20214;-45
2022/02/02 06:08:56;;;;;;;3.55;1.92;;;4.50;99.90;;;;;;5145444;27;20434;-48
2022/02/02 06:11:26;;;;;;;9.00;3.13;;;4.50;99.90;;;;;;5144120;27;20197;-48
2022/02/02 06:13:57;;;;;;;4.75;1.50;;;4.50;99.90;;;;;;5143806;27;20267;-47
2022/02/02 06:16:29;;;;;;;3.28;2.05;;;4.50;99.90;;;;;;5144645;27;20245;-46
2022/02/02 06:18:58;;;;;;;12.52;2.15;;;4.50;99.90;;;;;;5144657;27;20208;-50
2022/02/02 06:21:35;;;;;;;5.25;2.95;;;4.50;99.90;;;;;;5136730;27;20280;-48
2022/02/02 06:24:11;;;;;;;3.55;1.55;;;4.50;99.90;;;;;;5135301;27;20194;-51
2022/02/02 06:26:41;;;;;;;4.68;2.17;;;4.50;99.90;;;;;;5135430;27;20307;-50
2022/02/02 06:29:11;;;;;;;4.22;1.77;;;4.50;99.90;;;;;;5122398;28;20201;-48
2022/02/02 06:31:40;;;;;;;6.78;2.45;;;4.40;99.90;;;;;;5124064;28;20219;-49
2022/02/02 06:34:12;;;;;;;5.75;2.55;;;4.40;99.90;;;;;;5123466;28;20206;-47
2022/02/02 06:36:41;;;;;;;3.20;1.50;;;4.40;99.90;;;;;;5123449;28;20293;-49
2022/02/02 06:39:11;;;;;;;1.80;1.35;;;4.40;99.90;;;;;;5123614;28;20294;-45
2022/02/02 06:41:39;;;;;;;4.28;1.63;;;4.30;99.90;;;;;;5123531;28;20225;-49
2022/02/02 06:44:06;;;;;;;8.35;2.50;;;4.30;99.90;;;;;;5123619;28;20195;-48
2022/02/02 06:46:38;;;;;;;9.18;2.33;;;4.20;99.90;;;;;;5123244;28;20219;-46
2022/02/02 06:49:08;;;;;;;5.85;2.28;;;4.20;99.90;;;;;;5123794;28;20200;-47
2022/02/02 06:51:45;;;;;;;6.22;1.40;;;4.30;99.90;;;;;;5123341;28;20440;-47
2022/02/02 06:54:21;;;;;;;5.95;1.75;;;4.30;99.90;;;;;;5123577;28;20287;-50
2022/02/02 06:56:56;;;;;;;4.20;2.08;;;4.30;99.90;;;;;;5123534;28;20220;-51
2022/02/02 07:04:52;;;;;;;7.30;2.20;;;4.50;99.90;;;;;;5120981;28;20200;-47
2022/02/02 07:10:17;;;;;;;11.00;1.75;;;4.60;99.90;;;;;;5111772;28;20223;-51
2022/02/02 07:24:29;;;;;;;9.00;4.90;;;5.10;99.90;;;;;;5135201;27;20199;-47
2022/02/02 07:32:05;;;;;;;9.98;3.55;;;5.40;99.90;;;;;;5123221;28;20197;-48
2022/02/02 07:35:12;;;;;;;5.40;3.05;;;5.30;99.90;;;;;;5122670;28;20300;-48
2022/02/02 07:37:57;;;;;;;8.18;3.00;;;5.20;99.90;;;;;;5122719;28;20292;-47
2022/02/02 07:40:26;;;;;;;4.57;2.70;;;5.10;99.90;;;;;;5128065;28;20194;-51
2022/02/02 07:42:58;;;;;;;12.45;2.97;;;5.00;99.90;;;;;;5127624;28;20221;-47
2022/02/02 07:45:25;;;;;;;5.45;2.20;;;5.00;99.90;;;;;;5123619;28;20257;-45
2022/02/02 07:48:00;;;;;;;7.03;2.20;;;5.00;99.90;;;;;;5123247;28;20291;-48
2022/02/02 07:50:33;;;;;;;8.23;2.45;;;5.10;99.90;;;;;;5123055;28;20406;-46
2022/02/02 07:53:11;;;;;;;1.60;1.38;;;5.20;99.90;;;;;;5123704;28;20529;-48
2022/02/02 07:55:43;;;;;;;2.70;1.67;;;5.30;99.90;;;;;;5123628;28;20545;-48
2022/02/02 07:58:17;;;;;;;7.28;1.77;;;5.30;99.90;;;;;;5123161;28;20404;-51
2022/02/02 08:00:45;;;;;;;5.85;2.22;;;5.30;99.90;;;;;;5123153;28;20225;-47
2022/02/02 08:03:14;;;;;;;3.85;2.95;;;5.30;99.90;;;;;;5116311;28;20212;-45
2022/02/02 08:05:47;;;;;;;6.63;1.70;;;5.20;99.90;;;;;;5111866;28;20201;-46
2022/02/02 08:10:50;;;;;;;6.32;2.38;;;5.10;99.90;;;;;;5110342;28;20203;-46
2022/02/02 08:13:24;;;;;;;5.38;2.50;;;5.00;99.90;;;;;;5112172;28;20542;-47
2022/02/02 08:16:00;;;;;;;2.15;1.23;;;5.00;99.90;;;;;;5112200;28;20223;-48
2022/02/02 08:18:27;;;;;;;2.45;2.13;;;5.10;99.90;;;;;;5109503;28;20402;-47
2022/02/02 08:20:55;;;;;;;6.03;1.98;;;5.10;99.90;;;;;;5112951;27;20201;-52
2022/02/02 08:23:23;;;;;;;8.30;2.85;;;5.10;99.90;;;;;;5126270;27;20225;-46
2022/02/02 08:25:51;;;;;;;6.00;2.22;;;5.00;99.90;;;;;;5142676;27;20216;-46
2022/02/02 08:28:19;;;;;;;7.57;2.33;;;4.90;99.90;;;;;;5121677;28;20542;-47
2022/02/02 08:30:49;;;;;;;2.03;1.55;;;5.10;99.90;;;;;;5110106;28;20209;-47
2022/02/02 08:33:21;;;;;;;10.52;2.63;;;5.10;99.90;;;;;;5101540;28;20223;-45
2022/02/02 08:35:53;;;;;;;8.18;3.40;;;5.20;99.90;;;;;;5101147;28;20218;-49
2022/02/02 08:41:00;;;;;;;4.60;1.90;;;5.20;99.90;;;;;;5104067;28;20234;-45
2022/02/02 08:43:44;;;;;;;3.90;2.10;;;5.10;99.90;;;;;;5112023;28;20250;-47
2022/02/02 08:46:22;;;;;;;4.50;2.40;;;4.90;99.90;;;;;;5108894;28;20248;-51
2022/02/02 08:48:52;;;;;;;4.80;1.80;;;4.90;99.90;;;;;;5109264;28;20208;-44
2022/02/02 08:51:23;;;;;;;8.77;2.65;;;5.00;99.90;;;;;;5112736;28;20212;-48
2022/02/02 08:59:09;;;;;;;7.22;2.88;;;5.40;99.90;;;;;;5109661;28;20200;-47
2022/02/02 09:01:38;;;;;;;4.70;3.35;;;5.30;99.90;;;;;;5108508;28;20580;-47
2022/02/02 09:06:51;;;;;;;4.18;2.00;;;5.40;99.90;;;;;;5100784;28;20216;-49
2022/02/02 09:09:22;;;;;;;6.43;2.53;;;5.30;99.90;;;;;;5101482;28;20388;-47
2022/02/02 09:25:43;;;;;;;2.83;1.80;;;5.50;99.90;;;;;;5110695;28;20285;-48
2022/02/02 09:36:13;;;;;;;4.35;2.85;;;6.70;99.90;;;;;;5109656;28;20225;-49
2022/02/02 09:38:41;;;;;;;2.28;1.10;;;6.80;99.90;;;;;;5117441;28;20374;-47
2022/02/02 09:41:35;;;;;;;6.63;2.08;;;6.80;99.90;;;;;;5119454;28;20470;-51
2022/02/02 09:44:09;;;;;;;3.75;1.90;;;6.80;99.90;;;;;;5114134;28;20220;-51
2022/02/02 09:49:16;;;;;;;4.53;1.45;;;6.60;99.90;;;;;;5114353;28;20259;-47
2022/02/02 09:51:49;;;;;;;5.55;2.25;;;6.60;99.90;;;;;;5114585;28;20473;-48
2022/02/02 09:54:29;;;;;;;7.85;1.63;;;6.50;99.90;;;;;;5111490;28;20380;-50
2022/02/02 10:05:30;;;;;;;5.75;1.40;;;6.60;99.90;;;;;;5113946;28;20269;-47
2022/02/02 10:09:23;;;;;;;4.35;1.85;;;6.50;99.90;;;;;;5113595;28;20268;-47
2022/02/02 10:14:34;;;;;;;2.65;1.55;;;6.30;99.90;;;;;;5114779;28;20202;-49
2022/02/02 10:17:08;;;;;;;4.55;2.67;;;6.30;99.90;;;;;;5112900;28;20252;-50
2022/02/02 10:19:37;;;;;;;5.15;2.47;;;6.30;99.90;;;;;;5112007;28;20198;-52
2022/02/02 10:22:29;;;;;;;3.08;1.63;;;6.40;99.90;;;;;;5117991;27;20208;-46
2022/02/02 10:25:00;;;;;;;2.00;1.25;;;6.30;99.90;;;;;;5120679;27;20426;-47
2022/02/02 10:27:35;;;;;;;6.15;1.63;;;6.20;99.90;;;;;;5108217;28;20210;-49
2022/02/02 10:30:21;;;;;;;2.33;1.25;;;6.30;99.90;;;;;;5103317;28;20202;-48
2022/02/02 10:32:51;;;;;;;9.15;2.25;;;6.40;99.90;;;;;;5104098;28;20206;-48
2022/02/02 10:35:38;;;;;;;6.30;2.33;;;6.60;99.90;;;;;;5103881;28;20504;-47
2022/02/02 10:38:29;;;;;;;8.38;1.73;;;6.50;99.90;;;;;;5103996;28;20512;-49
2022/02/02 10:41:27;;;;;;;4.00;1.55;;;6.50;99.90;;;;;;5103689;28;20238;-48
2022/02/02 10:44:22;;;;;;;8.70;2.70;;;6.50;99.90;;;;;;5106290;28;20213;-49
2022/02/02 10:52:29;;;;;;;4.63;2.35;;;7.00;99.90;;;;;;5109857;28;20392;-51
2022/02/02 10:55:12;;;;;;;3.10;1.73;;;6.90;99.90;;;;;;5109966;28;20209;-51
2022/02/02 10:57:36;;;;;;;8.60;2.78;;;7.00;99.90;;;;;;5110400;28;20229;-47
2022/02/02 11:00:14;;;;;;;5.22;2.70;;;7.00;99.90;;;;;;5111345;28;20200;-49
2022/02/02 11:08:22;;;;;;;6.45;1.48;;;6.80;99.90;;;;;;5115070;28;20189;-47
2022/02/02 11:10:51;;;;;;;8.73;3.00;;;6.80;99.90;;;;;;5114049;28;20190;-48
2022/02/02 11:13:18;;;;;;;5.85;3.83;;;6.90;99.90;;;;;;5111032;28;20197;-48
2022/02/02 11:15:49;;;;;;;7.35;2.20;;;7.10;99.90;;;;;;5112512;28;20288;-48
2022/02/02 11:18:27;;;;;;;6.47;2.75;;;6.90;99.90;;;;;;5113955;28;20237;-45
2022/02/02 11:21:04;;;;;;;7.43;3.10;;;7.10;99.90;;;;;;5112591;28;20326;-49
2022/02/02 11:23:45;;;;;;;4.65;1.70;;;7.40;99.90;;;;;;5124335;28;20247;-46
2022/02/02 11:26:13;;;;;;;4.30;1.67;;;7.00;99.90;;;;;;5127740;28;20451;-45
2022/02/02 11:28:49;;;;;;;4.50;1.52;;;6.50;99.90;;;;;;5123431;28;20235;-48
2022/02/02 11:31:18;;;;;;;6.00;3.10;;;6.10;99.90;;;;;;5122756;28;20189;-49
2022/02/02 11:33:59;;;;;;;3.50;1.80;;;5.70;99.90;;;;;;5124252;28;20263;-45
2022/02/02 11:36:40;;;;;;;5.78;1.63;;;5.40;99.90;;;;;;5125904;28;20220;-47
2022/02/02 11:39:35;;;;;;;6.30;1.85;;;4.70;99.90;;;;;;5125537;28;20209;-48
2022/02/02 11:42:41;;;;;;;6.13;0.85;;;4.40;99.90;;;;;;5129207;28;20192;-46
2022/02/02 11:45:13;;;;;;;3.38;2.00;;;4.50;99.90;;;;;;5123870;28;20269;-46
2022/02/02 11:47:49;;;;;;;5.43;1.65;;;4.60;99.90;;;;;;5123069;28;20248;-47
2022/02/02 11:50:46;;;;;;;5.00;2.15;;;4.80;99.90;;;;;;5122698;28;20200;-48
2022/02/02 11:53:48;;;;;;;3.03;2.38;;;4.90;99.90;;;;;;5122601;28;20262;-47
2022/02/02 11:56:16;;;;;;;5.80;2.13;;;5.00;99.90;;;;;;5122380;28;20609;-48
2022/02/02 11:58:44;;;;;;;1.85;1.50;;;5.10;99.90;;;;;;5122621;28;20235;-49
2022/02/02 12:01:26;;;;;;;8.20;2.55;;;5.20;99.90;;;;;;5122000;28;20264;-48
2022/02/02 12:04:15;;;;;;;2.80;1.63;;;5.40;99.90;;;;;;5122502;28;20217;-49
2022/02/02 12:09:25;;;;;;;7.78;4.30;;;5.60;99.90;;;;;;5122587;28;20387;-47
2022/02/02 12:48:00;;;;;;;5.03;1.48;;;5.20;99.90;;;;;;5110999;28;20425;-44
2022/02/02 12:56:37;;;;;;;6.55;2.35;;;5.20;99.90;;;;;;5056021;28;20206;-49
2022/02/02 12:59:22;;;;;;;5.25;2.58;;;5.10;99.90;;;;;;5049827;28;20245;-48
2022/02/02 13:02:06;;;;;;;2.75;1.60;;;5.10;99.90;;;;;;5048803;28;20219;-51
2022/02/02 13:04:33;;;;;;;2.00;1.80;;;5.00;99.90;;;;;;5059758;28;20226;-46
2022/02/02 13:07:12;;;;;;;5.75;2.30;;;5.10;99.90;;;;;;5060078;28;20210;-46
2022/02/02 13:09:42;;;;;;;3.05;2.00;;;5.10;99.90;;;;;;5059397;28;20446;-48
2022/02/02 13:12:24;;;;;;;2.05;1.15;;;5.10;99.90;;;;;;5061306;28;20215;-49
2022/02/02 13:15:11;;;;;;;4.47;2.30;;;5.10;99.90;;;;;;5059530;28;20248;-51
2022/02/02 13:17:57;;;;;;;4.20;1.10;;;5.10;99.90;;;;;;5060113;28;20258;-51
2022/02/02 13:20:52;;;;;;;4.68;1.90;;;5.10;99.90;;;;;;5059928;28;20217;-46
2022/02/02 13:23:37;;;;;;;1.58;1.30;;;5.00;99.90;;;;;;5059485;28;20222;-48
2022/02/02 13:26:20;;;;;;;8.48;2.67;;;4.90;99.90;;;;;;5060157;28;20196;-49
2022/02/02 13:31:36;;;;;;;2.67;1.38;;;4.90;99.90;;;;;;5059315;28;20286;-50
2022/02/02 13:34:10;;;;;;;3.15;1.20;;;4.90;99.90;;;;;;5060294;28;20221;-47
2022/02/02 13:36:51;;;;;;;7.75;2.80;;;4.90;99.90;;;;;;5058521;28;20209;-48
2022/02/02 13:45:39;;;;;;;4.85;1.40;;;5.10;99.90;;;;;;5057266;28;20296;-52
2022/02/02 13:51:06;;;;;;;2.78;1.60;;;5.00;99.90;;;;;;5058231;28;20262;-48
2022/02/02 13:59:22;;;;;;;2.88;1.48;;;5.00;99.90;;;;;;5059270;28;20199;-46
2022/02/02 14:02:09;;;;;;;6.10;2.20;;;5.10;99.90;;;;;;5059569;28;20215;-45
2022/02/02 14:31:23;;;;;;;7.68;2.00;;;5.40;99.90;;;;;;5062900;28;20286;-48
2022/02/02 14:34:03;;;;;;;2.72;1.90;;;5.40;99.90;;;;;;5062657;28;20202;-49
2022/02/02 14:36:35;;;;;;;3.38;2.17;;;5.40;99.90;;;;;;5062460;28;20335;-48
2022/02/02 14:39:21;;;;;;;9.85;2.53;;;5.40;99.90;;;;;;5062461;28;20282;-45
2022/02/02 14:41:54;;;;;;;4.88;2.47;;;5.40;99.90;;;;;;5062431;28;20254;-49
2022/02/02 14:44:30;;;;;;;7.93;2.00;;;5.50;99.90;;;;;;5062140;28;20232;-47
2022/02/02 14:47:24;;;;;;;3.25;1.73;;;5.40;99.90;;;;;;5062939;28;20579;-46
2022/02/02 14:50:06;;;;;;;6.55;2.50;;;5.40;99.90;;;;;;5062138;28;20503;-51
2022/02/02 14:52:51;;;;;;;2.17;1.42;;;5.30;99.90;;;;;;5062363;28;20252;-50
2022/02/02 14:55:54;;;;;;;5.88;2.38;;;5.30;99.90;;;;;;5062002;28;20238;-47
2022/02/02 15:30:58;;;;;;;5.43;2.35;;;4.70;99.90;;;;;;5061137;28;20225;-48
2022/02/02 15:33:29;;;;;;;3.65;2.03;;;4.60;99.90;;;;;;5061630;28;20202;-45
2022/02/02 15:36:19;;;;;;;6.82;2.60;;;4.70;99.90;;;;;;5060541;28;20206;-51
2022/02/02 15:38:50;;;;;;;3.13;1.83;;;4.70;99.90;;;;;;5061484;28;20360;-51
2022/02/02 15:41:24;;;;;;;2.85;1.70;;;4.70;99.90;;;;;;5060267;28;20226;-49
2022/02/02 16:05:00;;;;;;;4.10;1.90;;;4.60;99.90;;;;;;5061237;28;20253;-47
2022/02/02 16:07:29;;;;;;;3.58;1.52;;;4.60;99.90;;;;;;5060889;28;20509;-51
2022/02/02 16:10:03;;;;;;;2.67;1.80;;;4.70;99.90;;;;;;5060830;28;20203;-51
2022/02/02 16:12:45;;;;;;;2.35;1.00;;;4.70;99.90;;;;;;5061477;28;20272;-47
2022/02/02 16:15:21;;;;;;;3.20;1.58;;;4.70;99.90;;;;;;5061696;28;20212;-45
2022/02/02 16:18:06;;;;;;;2.83;2.55;;;4.70;99.90;;;;;;5060593;28;20257;-51
2022/02/02 16:32:02;;;;;;;0.95;0.88;;;4.60;99.90;;;;;;5059759;28;20224;-47
2022/02/02 16:37:05;;;;;;;3.83;1.90;;;4.50;99.90;;;;;;5060549;28;20487;-50
2022/02/02 16:39:38;;;;;;;5.68;1.95;;;4.40;99.90;;;;;;5060471;28;20216;-50
2022/02/02 16:44:53;;;;;;;7.60;2.15;;;4.30;99.90;;;;;;5060247;28;20551;-52
2022/02/02 16:47:22;;;;;;;2.15;1.67;;;4.20;99.90;;;;;;5059775;28;20390;-50
2022/02/02 16:50:09;;;;;;;1.98;1.20;;;4.00;99.90;;;;;;5060183;28;20319;-47
2022/02/02 16:52:36;;;;;;;0.60;0.60;;;3.10;99.90;;;;;;5060631;28;20197;-53
2022/02/02 16:55:11;;;;;;;0.40;0.40;;;2.60;99.90;;;;;;5060253;28;20207;-45
2022/02/02 16:58:00;;;;;;;0.95;0.70;;;2.60;99.90;;;;;;5060419;28;20413;-47
2022/02/02 17:31:25;;;;;;;2.22;1.63;;;3.10;99.90;;;;;;5059385;28;20221;-48
2022/02/02 17:34:01;;;;;;;3.15;1.45;;;3.10;99.90;;;;;;5060341;28;20374;-49
2022/02/02 17:36:41;;;;;;;2.20;1.50;;;3.00;99.90;;;;;;5059819;28;20201;-47
2022/02/02 17:39:12;;;;;;;2.05;1.88;;;3.00;99.90;;;;;;5060002;28;20394;-45
2022/02/02 17:42:03;;;;;;;1.45;1.33;;;3.00;99.90;;;;;;5059372;28;20258;-49
2022/02/02 18:12:34;;;;;;;2.60;2.17;;;2.80;99.90;;;;;;5062878;28;20222;-49
2022/02/02 18:20:33;;;;;;;4.80;3.30;;;2.80;99.90;;;;;;5063016;28;20219;-49
2022/02/02 18:23:10;;;;;;;3.08;2.45;;;2.70;99.90;;;;;;5063041;28;20200;-50
2022/02/02 18:25:47;;;;;;;3.83;3.35;;;2.70;99.90;;;;;;5062667;28;20212;-47
2022/02/02 18:28:29;;;;;;;3.10;2.80;;;2.70;99.90;;;;;;5062863;28;20421;-46
2022/02/02 18:34:06;;;;;;;4.85;4.20;;;2.70;99.90;;;;;;5062799;28;20267;-46
2022/02/02 18:36:39;;;;;;;6.03;4.03;;;2.80;99.90;;;;;;5062848;28;20222;-45
2022/02/02 18:47:12;;;;;;;4.93;3.17;;;2.90;99.90;;;;;;5063102;28;20223;-46
2022/02/02 18:56:01;;;;;;;4.40;2.40;;;2.90;99.90;;;;;;5052624;28;20201;-46
2022/02/02 18:58:16;;;;;;;3.17;2.08;;;2.90;99.90;;;;;;5062185;28;20226;-47
2022/02/02 19:00:54;;;;;;;2.95;2.53;;;2.90;99.90;;;;;;5062855;28;20223;-46
2022/02/02 19:31:16;;;;;;;2.88;2.45;;;2.90;99.90;;;;;;5062161;28;20217;-49
2022/02/02 19:55:54;;;;;;;3.25;2.67;;;2.70;99.90;;;;;;5061426;28;20510;-49
2022/02/02 20:11:35;;;;;;;4.22;3.55;;;2.60;99.90;;;;;;5061257;28;20226;-46
2022/02/02 20:14:03;;;;;;;2.50;2.30;;;2.60;99.90;;;;;;5061489;28;20257;-46
2022/02/02 20:16:31;;;;;;;5.32;4.75;;;2.60;99.90;;;;;;5061774;28;20203;-49
2022/02/02 20:19:01;;;;;;;4.40;3.22;;;2.60;99.90;;;;;;5061423;28;20538;-46
2022/02/02 20:21:33;;;;;;;4.88;2.00;;;2.60;99.90;;;;;;5060868;28;20564;-51
2022/02/02 20:24:03;;;;;;;3.55;2.60;;;2.70;99.90;;;;;;5061123;28;20218;-47
2022/02/02 20:26:33;;;;;;;2.33;2.15;;;2.60;99.90;;;;;;5060951;28;20219;-50
2022/02/02 20:29:02;;;;;;;2.50;2.30;;;2.50;99.90;;;;;;5060899;28;20202;-48
2022/02/02 20:31:32;;;;;;;2.55;1.90;;;2.40;99.90;;;;;;5060681;28;20216;-47
2022/02/02 20:34:00;;;;;;;1.73;1.63;;;2.30;99.90;;;;;;5061063;28;20212;-50
2022/02/02 20:36:27;;;;;;;2.00;1.55;;;2.20;99.90;;;;;;5060850;28;20506;-48
2022/02/02 20:38:55;;;;;;;2.55;1.60;;;2.20;99.90;;;;;;5060829;28;20237;-46
2022/02/02 20:41:24;;;;;;;1.80;1.55;;;2.20;99.90;;;;;;5060262;28;20227;-48
2022/02/02 20:43:59;;;;;;;3.05;1.92;;;2.10;99.90;;;;;;5060830;28;20223;-48
2022/02/02 20:47:02;;;;;;;2.60;1.65;;;2.20;99.90;;;;;;5060565;28;20250;-49
2022/02/02 21:01:00;;;;;;;3.15;1.83;;;2.20;99.90;;;;;;5060472;28;20215;-50
2022/02/02 21:11:14;;;;;;;2.10;1.90;;;1.90;99.90;;;;;;5060313;28;20254;-48
2022/02/02 21:13:45;;;;;;;2.55;1.83;;;1.90;99.90;;;;;;5060424;28;20196;-47
2022/02/02 21:16:15;;;;;;;5.50;2.30;;;1.80;99.90;;;;;;5060242;28;20214;-48
2022/02/02 21:18:43;;;;;;;1.60;1.50;;;1.80;99.90;;;;;;5060518;28;20211;-47
2022/02/02 21:21:34;;;;;;;3.25;1.70;;;1.70;99.90;;;;;;5060274;28;20219;-50
2022/02/02 21:29:24;;;;;;;5.40;2.60;;;1.60;99.90;;;;;;5060586;28;20191;-46
2022/02/02 21:31:52;;;;;;;2.58;2.10;;;1.50;99.90;;;;;;5059961;28;20216;-48
2022/02/02 21:34:20;;;;;;;3.28;2.13;;;1.50;99.90;;;;;;5061787;28;20231;-47
2022/02/02 21:36:48;;;;;;;2.88;1.92;;;1.50;99.90;;;;;;5064022;28;20199;-48
2022/02/02 21:39:21;;;;;;;2.80;2.13;;;1.40;99.90;;;;;;5063921;28;20265;-47
2022/02/02 21:41:52;;;;;;;8.45;1.67;;;1.40;99.90;;;;;;5063571;28;20219;-48
2022/02/02 21:44:21;;;;;;;3.80;2.45;;;1.30;99.90;;;;;;5063681;28;20552;-46
2022/02/02 21:46:49;;;;;;;2.97;2.03;;;1.30;99.90;;;;;;5064179;28;20223;-49
2022/02/02 21:49:20;;;;;;;3.20;2.10;;;1.20;99.90;;;;;;5063940;28;20253;-46
2022/02/02 21:52:02;;;;;;;2.40;2.20;;;1.20;99.90;;;;;;5063657;28;20245;-50
2022/02/02 21:54:30;;;;;;;3.60;2.20;;;1.20;99.90;;;;;;5063833;28;20218;-53
2022/02/02 21:56:59;;;;;;;3.65;1.95;;;1.10;99.90;;;;;;5063753;28;20269;-48
2022/02/02 21:59:26;;;;;;;2.63;2.38;;;1.10;99.90;;;;;;5063256;28;20199;-46
2022/02/02 22:01:54;;;;;;;4.70;2.70;;;1.10;99.90;;;;;;5063209;28;20566;-48
2022/02/02 22:04:26;;;;;;;1.95;1.75;;;1.10;99.90;;;;;;5063227;28;20199;-51
2022/02/02 22:06:54;;;;;;;2.80;1.55;;;1.10;99.90;;;;;;5063725;28;20227;-46
2022/02/02 22:09:21;;;;;;;2.97;2.53;;;1.00;99.90;;;;;;5063449;28;20196;-49
2022/02/02 22:11:50;;;;;;;2.83;2.30;;;1.00;99.90;;;;;;5063138;28;20223;-49
2022/02/02 22:14:20;;;;;;;2.45;2.05;;;1.10;99.90;;;;;;5063364;28;20200;-51
2022/02/02 22:16:49;;;;;;;2.65;2.22;;;1.00;99.90;;;;;;5063462;28;20199;-47
2022/02/02 22:19:16;;;;;;;4.63;1.80;;;1.10;99.90;;;;;;5063465;28;20261;-45
2022/02/02 22:21:44;;;;;;;2.88;2.63;;;1.00;99.90;;;;;;5063305;28;20224;-49
2022/02/02 22:24:17;;;;;;;6.35;3.28;;;0.90;99.90;;;;;;5063195;28;20206;-45
2022/02/02 22:26:45;;;;;;;6.30;3.17;;;0.70;99.90;;;;;;5063118;28;20554;-49
2022/02/02 22:29:12;;;;;;;5.63;2.92;;;0.80;99.90;;;;;;5063054;28;20199;-53
2022/02/02 22:31:40;;;;;;;4.95;2.70;;;0.80;99.90;;;;;;5063120;28;20277;-46
2022/02/02 22:34:08;;;;;;;5.32;2.13;;;0.90;99.90;;;;;;5063356;28;20218;-47
2022/02/02 22:36:35;;;;;;;3.90;2.28;;;0.90;99.90;;;;;;5063475;28;20398;-48
2022/02/02 22:39:02;;;;;;;6.22;3.97;;;0.80;99.90;;;;;;5062932;28;20203;-46
2022/02/02 22:41:30;;;;;;;4.95;2.35;;;0.70;99.90;;;;;;5062817;28;20219;-48
2022/02/02 22:43:59;;;;;;;9.85;2.83;;;0.90;99.90;;;;;;5062954;28;20191;-46
2022/02/02 22:46:28;;;;;;;2.78;2.05;;;0.90;99.90;;;;;;5061910;28;20322;-51
2022/02/02 22:48:56;;;;;;;4.40;2.45;;;0.90;99.90;;;;;;5063213;28;20423;-48
2022/02/02 22:51:23;;;;;;;4.53;2.33;;;0.90;99.90;;;;;;5062895;28;20231;-48
2022/02/02 22:53:51;;;;;;;6.53;2.15;;;1.00;99.90;;;;;;5063300;28;20195;-46
2022/02/02 22:56:19;;;;;;;4.20;2.53;;;1.00;99.90;;;;;;5062494;28;20206;-47
2022/02/02 22:58:48;;;;;;;2.97;2.10;;;1.00;99.90;;;;;;5063198;28;20203;-45
2022/02/02 23:01:17;;;;;;;3.95;2.05;;;1.10;99.90;;;;;;5063555;28;20265;-48
2022/02/02 23:03:50;;;;;;;2.15;1.95;;;1.00;99.90;;;;;;5063265;28;20199;-48
2022/02/02 23:06:18;;;;;;;1.92;1.75;;;1.00;99.90;;;;;;5062457;28;20533;-46
2022/02/02 23:08:46;;;;;;;1.95;1.60;;;1.00;99.90;;;;;;5063060;28;20536;-45
2022/02/02 23:11:15;;;;;;;7.32;2.80;;;1.00;99.90;;;;;;5062502;28;20216;-50
2022/02/02 23:13:46;;;;;;;2.35;2.05;;;0.90;99.90;;;;;;5062361;28;20222;-47
2022/02/02 23:16:23;;;;;;;4.63;2.55;;;1.00;99.90;;;;;;5062325;28;20208;-50
2022/02/02 23:18:51;;;;;;;6.32;2.53;;;0.90;99.90;;;;;;5062701;28;20199;-46
2022/02/02 23:21:21;;;;;;;3.13;2.42;;;0.90;99.90;;;;;;5061742;28;20231;-47
2022/02/02 23:23:56;;;;;;;10.27;3.67;;;0.90;99.90;;;;;;5062642;28;20226;-46
2022/02/02 23:26:24;;;;;;;6.80;3.85;;;0.90;99.90;;;;;;5061887;28;20532;-49
2022/02/02 23:28:57;;;;;;;4.88;2.25;;;1.00;99.90;;;;;;5062741;28;20199;-46
2022/02/02 23:31:25;;;;;;;6.72;4.00;;;0.90;99.90;;;;;;5061883;28;20222;-47
2022/02/02 23:33:52;;;;;;;6.88;2.85;;;0.90;99.90;;;;;;5061907;28;20253;-45
2022/02/02 23:36:20;;;;;;;5.65;3.33;;;0.80;99.90;;;;;;5061936;28;20527;-46
2022/02/02 23:38:48;;;;;;;3.90;2.83;;;0.90;99.90;;;;;;5061943;28;20203;-48
2022/02/02 23:44:01;;;;;;;8.52;3.60;;;0.70;99.90;;;;;;5062505;28;20199;-47
2022/02/02 23:46:30;;;;;;;3.97;3.08;;;0.80;99.90;;;;;;5061457;28;20534;-46
2022/02/02 23:49:16;;;;;;;7.18;3.97;;;0.70;99.90;;;;;;5061923;28;20211;-49
2022/02/02 23:51:46;;;;;;;5.10;3.60;;;0.70;99.90;;;;;;5061709;28;20409;-46
2022/02/02 23:54:15;;;;;;;8.07;3.80;;;0.70;99.90;;;;;;5061770;28;20196;-52
2022/02/02 23:59:39;;;;;;;5.72;3.83;;;0.70;99.90;;;;;;5061536;28;20207;-46
